Saturday, July 21, 2018, 8:55 PM EDT
Back to Local

KPVC, Provincetown, Provincetown Municipal Airport

Location: Provincetown, MA, United States Lat: 42.067
Local Time: 8:55 PM EDT ( 0:55 GMT) Lon: -70.217
Time Zone: US/Eastern Elev: 6 ft

Show me the last for .
Show Decoded

2018-07-21 19:56 METAR KPVC 212356Z AUTO 10006KT 10SM CLR 18/15 A3014 RMK AO2 SLP207 T01830150
                 10233 20183 53003 =
2018-07-21 18:56 METAR KPVC 212256Z AUTO 10006KT 10SM FEW019 19/16 A3014 RMK AO2 SLP205 T01940156
                 =
2018-07-21 17:56 METAR KPVC 212156Z AUTO 08011KT 10SM FEW022 21/15 A3014 RMK AO2 SLP204 T02110150
                 =
2018-07-21 17:50 METAR KPVC 212150Z AUTO 08013KT 10SM FEW022 21/15 A3013 RMK AO2 =
2018-07-21 16:56 METAR KPVC 212056Z AUTO 10010KT 10SM OVC024 21/16 A3014 RMK AO2 SLP206 T02110156
                 56006 =
2018-07-21 15:56 METAR KPVC 211956Z AUTO 08012KT 10SM OVC024 22/16 A3014 RMK AO2 SLP206 T02170161
                 =
2018-07-21 14:56 METAR KPVC 211856Z AUTO 06010KT 10SM OVC024 22/16 A3015 RMK AO2 SLP209 T02170161
                 =
2018-07-21 13:56 METAR KPVC 211756Z AUTO 06011KT 10SM OVC022 22/16 A3016 RMK AO2 SLP212 T02170161
                 10239 20206 58009 =
2018-07-21 12:56 METAR KPVC 211656Z AUTO 09009G14KT 10SM BKN018 23/16 A3018 RMK AO2 SLP220
                 T02280161 =
2018-07-21 12:11 METAR KPVC 211611Z AUTO 06011KT 10SM SCT021 23/17 A3018 RMK AO2 =
2018-07-21 11:56 METAR KPVC 211556Z AUTO 10010KT 10SM BKN021 23/17 A3018 RMK AO2 SLP220 T02330167
                 =
2018-07-21 11:50 METAR KPVC 211550Z AUTO VRB06KT 10SM BKN021 22/16 A3019 RMK AO2 =
2018-07-21 11:22 METAR KPVC 211522Z AUTO 12007KT 10SM FEW019 22/16 A3019 RMK AO2 =
2018-07-21 10:56 METAR KPVC 211456Z AUTO 12008KT 10SM BKN017 22/17 A3019 RMK AO2 SLP223 T02220167
                 53006 =
2018-07-21 09:56 METAR KPVC 211356Z AUTO 12007KT 10SM BKN015 21/17 A3019 RMK AO2 SLP221 T02060167
                 =
2018-07-21 08:56 METAR KPVC 211256Z AUTO 14006KT 10SM BKN017 21/17 A3017 RMK AO2 SLP217 T02060172
                 =
2018-07-21 07:56 METAR KPVC 211156Z AUTO 05008KT 10SM CLR 21/15 A3017 RMK AO2 SLP216 T02060150
                 10206 20094 50003 =
2018-07-21 06:56 METAR KPVC 211056Z AUTO 07003KT 10SM CLR 19/16 A3017 RMK AO2 SLP217 T01890156 =
2018-07-21 05:56 METAR KPVC 210956Z AUTO 07003KT 10SM CLR 11/09 A3017 RMK AO2 SLP216 T01060089 =
2018-07-21 04:56 METAR KPVC 210856Z AUTO 00000KT 10SM CLR 10/08 A3016 RMK AO2 SLP213 T01000083
                 58003 =
2018-07-21 03:56 METAR KPVC 210756Z AUTO 00000KT 10SM CLR 10/09 A3017 RMK AO2 SLP217 T01000089 =
2018-07-21 02:56 METAR KPVC 210656Z AUTO 00000KT 10SM CLR 11/08 A3016 RMK AO2 SLP213 T01060083 =
2018-07-21 01:56 METAR KPVC 210556Z AUTO 14003KT 10SM CLR 12/09 A3017 RMK AO2 SLP216 T01170089
                 10200 20111 57003 =
2018-07-21 00:56 METAR KPVC 210456Z AUTO 15003KT 10SM CLR 11/09 A3017 RMK AO2 SLP217 T01110089
                 402670111 =
2018-07-20 23:56 METAR KPVC 210356Z AUTO 00000KT 10SM CLR 12/09 A3018 RMK AO2 SLP219 T01170089 =
2018-07-20 22:56 METAR KPVC 210256Z AUTO 17004KT 10SM CLR 12/09 A3018 RMK AO2 SLP219 T01220089
                 50005 =
2018-07-20 21:56 METAR KPVC 210156Z AUTO 16003KT 10SM CLR 14/10 A3019 RMK AO2 SLP222 T01440100 =
2018-07-20 20:56 METAR KPVC 210056Z AUTO 16003KT 10SM CLR 18/11 A3018 RMK AO2 SLP220 T01830106 =

Support USWX by starting your Amazon purchase here.